Time;durP1;ratioP1;P1;durP2;ratioP2;P2;SDS_P1;SDS_P2;PMS_P1;PMS_P2;Temp;Humidity;BMP_temperature;BMP_pressure;BME280_temperature;BME280_humidity;BME280_pressure;Samples;Min_cycle;Max_cycle;Signal;HPM_P1;HPM_P2
2023/05/01 00:01:20;;;;;;;18.10;6.50;;;;;;;4.82;55.18;99559.67;108228;1239;100382;-81
2023/05/01 00:03:47;;;;;;;18.00;6.80;;;;;;;4.80;55.18;99557.63;108336;1235;97494;-83
2023/05/01 00:06:13;;;;;;;19.80;7.40;;;;;;;4.81;55.15;99564.98;108324;1238;96554;-82
2023/05/01 00:08:40;;;;;;;20.50;6.90;;;;;;;4.80;55.34;99566.41;108442;1242;97491;-82
2023/05/01 00:11:11;;;;;;;21.00;7.20;;;;;;;4.78;55.35;99567.18;108217;1239;111276;-80
2023/05/01 00:13:37;;;;;;;18.60;6.60;;;;;;;4.76;55.24;99573.08;108387;1236;96608;-84
2023/05/01 00:16:12;;;;;;;18.90;7.40;;;;;;;4.74;55.21;99572.78;108115;1239;96611;-81
2023/05/01 00:18:39;;;;;;;21.30;8.10;;;;;;;4.74;55.36;99574.88;108308;1235;96557;-83
2023/05/01 00:21:05;;;;;;;18.70;7.00;;;;;;;4.74;55.41;99577.58;108261;1240;97902;-81
2023/05/01 00:23:32;;;;;;;22.30;7.90;;;;;;;4.71;55.34;99581.86;108455;1231;96573;-81
2023/05/01 00:25:59;;;;;;;24.00;8.40;;;;;;;4.69;55.44;99585.65;108160;1240;97704;-81
2023/05/01 00:28:29;;;;;;;24.30;8.10;;;;;;;4.65;55.47;99580.17;108359;1235;96604;-84
2023/05/01 00:30:56;;;;;;;24.30;8.10;;;;;;;4.65;55.51;99580.03;108324;1237;97695;-81
2023/05/01 00:33:23;;;;;;;20.50;7.30;;;;;;;4.67;55.58;99578.70;108377;1236;97449;-80
2023/05/01 00:35:51;;;;;;;28.60;12.90;;;;;;;4.68;55.84;99581.84;108356;1231;96618;-81
2023/05/01 00:38:23;;;;;;;24.60;9.80;;;;;;;4.69;55.75;99584.25;108376;1245;107508;-82
2023/05/01 00:40:55;;;;;;;20.20;7.40;;;;;;;4.68;55.76;99582.88;108236;1237;97441;-79
2023/05/01 00:43:22;;;;;;;19.20;8.70;;;;;;;4.66;55.66;99584.01;108392;1235;96977;-80
2023/05/01 00:45:49;;;;;;;26.00;8.90;;;;;;;4.67;55.87;99588.73;108309;1235;109234;-81
2023/05/01 00:48:16;;;;;;;20.00;7.20;;;;;;;4.68;55.86;99585.71;108398;1237;96592;-79
2023/05/01 00:50:44;;;;;;;25.80;8.20;;;;;;;4.69;55.92;99592.34;107983;1232;96519;-81
2023/05/01 00:53:11;;;;;;;19.10;7.30;;;;;;;4.66;55.93;99589.30;108208;1237;96661;-81
2023/05/01 00:55:42;;;;;;;22.10;7.50;;;;;;;4.64;55.90;99592.89;108327;1235;96586;-80
2023/05/01 00:58:12;;;;;;;20.80;7.60;;;;;;;4.63;55.95;99595.36;108221;1237;110388;-81
2023/05/01 01:00:41;;;;;;;19.90;7.00;;;;;;;4.63;56.10;99594.48;108467;1237;100339;-82
2023/05/01 01:03:23;;;;;;;22.60;7.20;;;;;;;4.62;56.00;99597.89;108041;1237;107456;-80
2023/05/01 01:06:03;;;;;;;22.60;7.50;;;;;;;4.59;55.98;99597.27;108286;1237;96697;-82
2023/05/01 01:08:40;;;;;;;15.80;6.20;;;;;;;4.57;56.00;99596.11;108198;1236;97076;-81
2023/05/01 01:11:18;;;;;;;18.70;6.70;;;;;;;4.52;56.20;99593.17;108183;1237;109873;-84
2023/05/01 01:13:57;;;;;;;17.10;6.30;;;;;;;4.49;56.19;99595.57;108467;1235;99097;-81
2023/05/01 01:16:43;;;;;;;18.30;7.10;;;;;;;4.46;56.10;99593.75;108271;1234;107320;-81
2023/05/01 01:19:46;;;;;;;19.30;6.90;;;;;;;4.44;56.19;99593.81;108214;1235;96589;-81
2023/05/01 01:22:19;;;;;;;16.90;6.10;;;;;;;4.41;56.24;99596.05;108316;1237;97072;-81
2023/05/01 01:25:14;;;;;;;20.20;7.30;;;;;;;4.38;56.37;99596.70;108179;1237;109726;-81
2023/05/01 01:28:02;;;;;;;19.40;6.70;;;;;;;4.36;56.40;99599.44;108305;1245;100763;-80
2023/05/01 01:30:58;;;;;;;18.60;6.50;;;;;;;4.34;56.42;99600.73;108163;1245;109177;-78
2023/05/01 01:33:54;;;;;;;21.80;6.40;;;;;;;4.29;56.50;99602.84;108286;1237;97892;-80
2023/05/01 01:36:33;;;;;;;20.80;7.00;;;;;;;4.29;56.41;99604.23;108240;1243;98145;-80
2023/05/01 01:39:09;;;;;;;17.80;6.50;;;;;;;4.27;56.45;99607.13;108602;1235;109919;-80
2023/05/01 01:41:41;;;;;;;18.40;6.20;;;;;;;4.21;56.61;99610.87;108387;1235;101244;-82
2023/05/01 01:44:19;;;;;;;19.20;7.00;;;;;;;4.16;56.42;99610.52;108130;1246;107155;-81
2023/05/01 01:46:49;;;;;;;20.30;7.10;;;;;;;4.13;56.68;99615.01;108267;1234;97142;-81
2023/05/01 01:49:25;;;;;;;21.20;7.30;;;;;;;4.06;56.55;99617.21;108257;1235;97047;-81
2023/05/01 01:51:55;;;;;;;17.10;6.60;;;;;;;4.05;56.54;99616.89;108258;1237;108918;-80
2023/05/01 01:54:35;;;;;;;18.20;7.20;;;;;;;4.01;56.66;99619.14;108383;1235;100428;-81
2023/05/01 01:57:05;;;;;;;16.20;6.10;;;;;;;3.95;56.58;99616.20;108339;1235;107457;-82
2023/05/01 01:59:35;;;;;;;19.10;7.30;;;;;;;3.92;56.63;99621.90;108253;1236;97702;-81
2023/05/01 02:02:03;;;;;;;18.00;6.60;;;;;;;3.87;56.66;99618.59;108352;1237;97541;-81
2023/05/01 02:04:33;;;;;;;20.00;7.70;;;;;;;3.83;56.54;99618.56;108316;1235;109774;-80
2023/05/01 02:07:01;;;;;;;23.20;7.80;;;;;;;3.77;56.61;99615.79;108341;1241;100745;-81
2023/05/01 02:09:30;;;;;;;18.50;6.70;;;;;;;3.78;56.69;99612.09;108299;1237;107542;-80
2023/05/01 02:12:04;;;;;;;20.80;7.00;;;;;;;3.78;56.72;99612.96;108202;1237;96589;-80
2023/05/01 02:14:32;;;;;;;18.10;7.10;;;;;;;3.77;56.91;99613.14;108239;1235;97030;-79
2023/05/01 02:17:01;;;;;;;17.90;7.00;;;;;;;3.76;56.81;99613.39;108346;1230;109783;-81
2023/05/01 02:19:30;;;;;;;17.00;6.40;;;;;;;3.75;57.00;99614.63;108248;1243;99650;-81
2023/05/01 02:21:58;;;;;;;19.00;7.10;;;;;;;3.69;56.75;99610.81;108139;1246;107468;-81
2023/05/01 02:24:27;;;;;;;18.40;6.40;;;;;;;3.62;57.02;99617.91;108280;1236;96602;-80
2023/05/01 02:26:59;;;;;;;18.40;7.30;;;;;;;3.55;57.17;99616.91;108368;1236;97084;-81
2023/05/01 02:29:26;;;;;;;21.80;7.30;;;;;;;3.51;56.99;99615.64;108332;1235;110400;-80
2023/05/01 02:31:54;;;;;;;21.90;6.70;;;;;;;3.51;57.19;99615.63;108357;1231;100743;-81
2023/05/01 02:34:21;;;;;;;18.70;7.10;;;;;;;3.50;57.07;99617.45;108268;1238;97724;-81
2023/05/01 02:36:48;;;;;;;19.50;7.30;;;;;;;3.51;57.20;99615.63;108332;1231;96738;-80
2023/05/01 02:39:20;;;;;;;17.80;6.80;;;;;;;3.44;57.36;99619.91;108419;1231;97038;-80
2023/05/01 02:41:48;;;;;;;20.10;7.50;;;;;;;3.35;56.94;99621.27;108361;1237;109266;-80
2023/05/01 02:44:19;;;;;;;20.60;7.70;;;;;;;3.30;57.30;99622.50;108211;1231;100791;-81
2023/05/01 02:46:51;;;;;;;17.70;7.70;;;;;;;3.30;57.30;99622.48;108342;1237;107379;-81
2023/05/01 02:49:19;;;;;;;22.00;10.10;;;;;;;3.25;57.40;99625.64;108286;1237;97155;-81
2023/05/01 02:51:48;;;;;;;21.40;9.30;;;;;;;3.23;57.33;99622.58;108281;1234;97078;-81
2023/05/01 02:54:19;;;;;;;20.50;8.40;;;;;;;3.26;57.64;99621.39;108078;1236;194098;-80
2023/05/01 02:56:46;;;;;;;20.80;8.60;;;;;;;3.21;57.52;99620.88;108248;1244;100497;-80
2023/05/01 02:59:13;;;;;;;24.20;9.90;;;;;;;3.18;57.21;99622.58;108148;1237;96694;-81
2023/05/01 03:01:39;;;;;;;20.60;8.20;;;;;;;3.18;57.52;99625.02;108141;1235;97823;-80
2023/05/01 03:04:06;;;;;;;19.80;8.00;;;;;;;3.13;57.73;99624.11;108441;1236;96592;-80
2023/05/01 03:06:32;;;;;;;22.70;7.50;;;;;;;3.13;57.56;99626.91;108214;1241;96625;-81
2023/05/01 03:08:59;;;;;;;22.20;7.70;;;;;;;3.11;58.00;99627.85;108091;1236;108231;-80
2023/05/01 03:11:28;;;;;;;22.70;9.20;;;;;;;3.06;57.62;99629.23;108302;1238;96837;-80
2023/05/01 03:13:55;;;;;;;21.20;8.90;;;;;;;3.02;57.51;99633.58;108258;1234;97005;-80
2023/05/01 03:16:23;;;;;;;23.10;8.80;;;;;;;3.01;57.78;99633.63;108350;1237;96524;-81
2023/05/01 03:18:49;;;;;;;21.60;8.60;;;;;;;3.01;57.73;99638.18;108164;1245;96560;-81
2023/05/01 03:21:23;;;;;;;21.90;9.50;;;;;;;3.01;57.85;99633.98;108582;1243;97532;-81
2023/05/01 03:23:49;;;;;;;;;;;;;;;2.97;58.13;99632.86;108232;1237;96604;-81
2023/05/01 03:26:16;;;;;;;22.20;9.90;;;;;;;2.90;58.06;99631.84;108135;1235;96569;-80
2023/05/01 03:28:45;;;;;;;22.00;9.70;;;;;;;2.84;57.77;99635.58;108229;1235;109806;-80
2023/05/01 03:31:12;;;;;;;23.80;8.20;;;;;;;2.89;58.14;99633.83;108348;1232;96732;-81
2023/05/01 03:33:39;;;;;;;21.70;9.40;;;;;;;2.92;58.07;99633.20;108278;1244;96583;-81
2023/05/01 03:36:06;;;;;;;21.00;9.10;;;;;;;2.94;58.13;99630.86;108407;1246;96589;-78
2023/05/01 03:38:32;;;;;;;19.90;8.80;;;;;;;2.91;58.22;99632.70;108450;1237;97533;-80
2023/05/01 03:40:59;;;;;;;22.20;9.60;;;;;;;2.89;58.04;99632.95;108339;1237;96520;-79
2023/05/01 03:43:30;;;;;;;19.80;8.70;;;;;;;2.91;58.13;99632.88;108107;1232;107465;-80
2023/05/01 03:46:00;;;;;;;21.50;8.60;;;;;;;2.93;58.35;99635.61;108118;1235;96570;-80
2023/05/01 03:48:27;;;;;;;22.40;8.80;;;;;;;2.97;58.38;99636.02;108107;1231;96999;-81
2023/05/01 03:50:55;;;;;;;20.70;8.90;;;;;;;3.05;58.23;99635.93;108132;1237;110309;-81
2023/05/01 03:53:24;;;;;;;24.90;9.60;;;;;;;3.11;58.32;99637.33;108030;1241;96945;-80
2023/05/01 03:55:51;;;;;;;20.50;8.90;;;;;;;3.17;58.42;99630.30;108376;1231;107426;-81
2023/05/01 03:58:18;;;;;;;23.40;9.90;;;;;;;3.18;58.48;99630.80;108121;1243;96620;-80
2023/05/01 04:00:49;;;;;;;21.80;9.10;;;;;;;3.17;58.22;99630.64;108138;1232;96980;-81
2023/05/01 04:03:16;;;;;;;22.20;9.20;;;;;;;3.21;58.48;99630.34;108243;1236;109574;-80
2023/05/01 04:05:43;;;;;;;24.00;8.80;;;;;;;3.27;58.85;99629.98;108200;1242;96556;-81
2023/05/01 04:08:10;;;;;;;23.90;9.20;;;;;;;3.29;58.85;99631.98;108160;1233;96570;-80
2023/05/01 04:10:39;;;;;;;25.00;10.30;;;;;;;3.33;58.96;99631.52;107916;1231;97559;-81
2023/05/01 04:13:05;;;;;;;27.90;13.20;;;;;;;3.36;58.89;99633.01;107918;1238;96659;-81
2023/05/01 04:15:32;;;;;;;25.60;11.80;;;;;;;3.32;58.85;99631.91;108249;1235;97802;-85
2023/05/01 04:18:01;;;;;;;26.70;11.00;;;;;;;3.35;58.98;99633.89;108390;1237;100457;-81
2023/05/01 04:20:30;;;;;;;25.80;10.60;;;;;;;3.40;59.02;99632.14;108293;1230;107180;-81
2023/05/01 04:22:56;;;;;;;24.40;11.00;;;;;;;3.47;59.19;99634.02;108378;1245;96672;-82
2023/05/01 04:25:23;;;;;;;27.40;11.00;;;;;;;3.55;59.21;99632.51;108385;1237;96585;-81
2023/05/01 04:27:49;;;;;;;25.60;10.20;;;;;;;3.64;58.88;99636.24;108415;1231;96593;-85
2023/05/01 04:30:16;;;;;;;23.20;10.50;;;;;;;3.74;59.01;99638.34;108051;1246;107543;-81
2023/05/01 04:32:43;;;;;;;62.20;45.10;;;;;;;3.80;59.30;99640.09;108295;1245;97503;-80
2023/05/01 04:35:11;;;;;;;55.70;42.60;;;;;;;3.81;58.98;99637.42;108279;1237;96629;-85
2023/05/01 04:37:40;;;;;;;49.50;33.10;;;;;;;3.84;59.34;99641.15;108324;1231;96593;-80
2023/05/01 04:40:08;;;;;;;33.60;17.70;;;;;;;3.92;59.36;99638.59;108399;1236;101096;-81
2023/05/01 04:42:37;;;;;;;27.70;14.80;;;;;;;4.01;59.53;99638.10;108279;1237;109237;-82
2023/05/01 04:45:04;;;;;;;26.40;13.60;;;;;;;4.12;59.62;99634.52;108525;1237;96585;-80
2023/05/01 04:47:33;;;;;;;28.30;12.90;;;;;;;4.26;59.49;99634.90;108325;1235;96665;-81
2023/05/01 04:50:00;;;;;;;26.70;12.50;;;;;;;4.37;59.73;99636.94;108431;1236;108184;-81
2023/05/01 04:52:26;;;;;;;24.90;11.10;;;;;;;4.44;59.71;99632.63;108515;1237;96579;-81
2023/05/01 04:54:53;;;;;;;25.00;11.30;;;;;;;4.53;59.64;99635.10;108250;1232;97468;-81
2023/05/01 04:57:21;;;;;;;22.50;9.30;;;;;;;4.64;59.61;99636.29;111555;1231;94179;-79
2023/05/01 04:59:48;;;;;;;22.70;9.80;;;;;;;4.75;59.61;99633.37;109787;1237;96590;-78
2023/05/01 05:02:14;;;;;;;24.50;10.70;;;;;;;4.87;59.68;99632.40;111472;1231;96442;-77
2023/05/01 05:04:41;;;;;;;25.70;13.10;;;;;;;4.98;59.69;99632.30;111560;1232;94284;-79
2023/05/01 05:07:08;;;;;;;26.30;13.00;;;;;;;5.08;59.68;99626.44;108789;1241;96666;-79
2023/05/01 05:09:35;;;;;;;26.30;13.50;;;;;;;5.19;59.64;99627.58;108639;1236;97800;-80
2023/05/01 05:12:04;;;;;;;31.00;14.10;;;;;;;5.30;59.73;99630.44;111588;1231;94447;-79
2023/05/01 05:14:30;;;;;;;24.90;9.80;;;;;;;5.38;59.66;99628.89;109913;1237;100714;-80
2023/05/01 05:16:56;;;;;;;32.90;11.20;;;;;;;5.47;59.79;99626.74;111479;1231;94481;-79
2023/05/01 05:19:23;;;;;;;24.60;11.40;;;;;;;5.59;59.95;99628.17;111617;1231;94179;-81
2023/05/01 05:21:50;;;;;;;29.40;9.90;;;;;;;5.71;59.90;99627.85;110580;1235;96509;-80
2023/05/01 05:24:16;;;;;;;21.50;8.80;;;;;;;5.81;59.95;99624.41;108293;1231;100763;-80
2023/05/01 05:26:46;;;;;;;27.90;8.90;;;;;;;5.90;59.83;99624.91;108485;1237;108153;-78
2023/05/01 05:29:13;;;;;;;23.20;8.00;;;;;;;5.97;59.93;99628.29;108349;1232;96576;-80
2023/05/01 05:31:39;;;;;;;22.80;8.60;;;;;;;6.03;59.90;99627.52;108475;1244;96554;-79
2023/05/01 05:34:06;;;;;;;24.30;7.60;;;;;;;6.07;59.86;99628.77;108585;1232;97244;-80
2023/05/01 05:36:35;;;;;;;22.90;9.40;;;;;;;6.12;59.86;99632.05;108517;1235;96567;-79
2023/05/01 05:39:04;;;;;;;22.60;8.20;;;;;;;6.18;60.03;99631.79;108359;1233;97769;-79
2023/05/01 05:41:33;;;;;;;23.30;8.60;;;;;;;6.24;60.02;99635.06;111547;1234;94636;-80
2023/05/01 05:44:00;;;;;;;21.30;7.40;;;;;;;6.29;60.04;99635.37;108812;1236;96592;-79
2023/05/01 05:46:26;;;;;;;22.90;8.10;;;;;;;6.35;59.91;99637.52;108344;1236;96541;-80
2023/05/01 05:48:53;;;;;;;22.80;7.90;;;;;;;6.41;59.98;99635.50;108353;1241;97516;-80
2023/05/01 05:51:24;;;;;;;23.20;8.70;;;;;;;6.48;60.00;99635.58;108698;1232;107507;-80
2023/05/01 05:53:50;;;;;;;22.00;7.70;;;;;;;6.53;60.16;99639.00;108686;1244;96540;-80
2023/05/01 05:56:16;;;;;;;21.10;8.50;;;;;;;6.60;60.10;99640.47;108570;1237;96633;-81
2023/05/01 05:58:43;;;;;;;23.00;8.30;;;;;;;6.65;60.28;99642.48;108305;1241;97694;-85
2023/05/01 06:01:10;;;;;;;23.70;9.00;;;;;;;6.73;60.09;99644.43;108238;1237;107484;-81
2023/05/01 06:03:37;;;;;;;22.20;8.80;;;;;;;6.78;60.18;99644.48;108176;1232;96606;-80
2023/05/01 06:06:06;;;;;;;23.10;7.40;;;;;;;6.86;60.18;99643.27;108234;1232;96653;-81
2023/05/01 06:08:35;;;;;;;20.90;6.90;;;;;;;6.93;60.25;99643.80;108579;1237;109475;-79
2023/05/01 06:11:01;;;;;;;20.00;6.60;;;;;;;7.00;60.11;99640.82;108189;1237;100705;-82
2023/05/01 06:13:28;;;;;;;17.40;6.50;;;;;;;7.10;60.32;99642.13;108312;1246;97835;-80
2023/05/01 06:15:54;;;;;;;17.70;6.60;;;;;;;7.23;60.40;99642.89;108376;1238;96589;-81
2023/05/01 06:18:23;;;;;;;16.60;6.10;;;;;;;7.39;60.09;99641.91;108236;1237;96636;-80
2023/05/01 06:20:51;;;;;;;19.10;6.40;;;;;;;7.51;60.10;99639.76;108255;1241;96606;-81
2023/05/01 06:23:19;;;;;;;16.40;5.60;;;;;;;7.61;60.09;99638.54;108364;1241;100705;-81
2023/05/01 06:25:47;;;;;;;26.90;6.10;;;;;;;7.70;60.24;99635.92;108372;1238;97481;-82
2023/05/01 06:28:14;;;;;;;15.70;5.20;;;;;;;7.82;60.12;99628.28;108414;1241;96986;-81
2023/05/01 06:30:43;;;;;;;14.80;5.50;;;;;;;7.93;60.23;99625.73;108178;1240;96989;-80
2023/05/01 06:33:10;;;;;;;19.00;6.10;;;;;;;8.03;60.11;99624.86;108415;1236;98000;-81
2023/05/01 06:35:42;;;;;;;15.40;5.30;;;;;;;8.11;60.04;99622.31;108420;1242;97001;-82
2023/05/01 06:38:11;;;;;;;14.70;6.00;;;;;;;8.19;60.06;99624.86;108204;1242;106214;-81
2023/05/01 06:40:40;;;;;;;12.10;4.70;;;;;;;8.29;59.97;99624.73;108844;1236;97465;-82
2023/05/01 06:43:07;;;;;;;16.30;5.10;;;;;;;8.36;59.99;99622.73;108591;1236;97495;-81
2023/05/01 06:45:38;;;;;;;14.80;5.60;;;;;;;8.45;59.85;99620.33;110022;1233;94833;-79
2023/05/01 06:48:10;;;;;;;15.10;5.00;;;;;;;8.52;59.78;99621.95;108372;1235;100858;-81
2023/05/01 06:50:37;;;;;;;15.20;6.00;;;;;;;8.57;59.81;99619.89;108541;1232;96633;-83
2023/05/01 06:53:03;;;;;;;14.70;4.80;;;;;;;8.65;59.86;99624.54;108490;1236;96646;-87
2023/05/01 06:55:30;;;;;;;16.30;5.10;;;;;;;8.74;59.86;99621.40;108562;1236;97062;-82
2023/05/01 06:58:00;;;;;;;17.00;4.90;;;;;;;8.82;59.67;99622.19;108467;1240;96668;-84
2023/05/01 07:00:40;;;;;;;20.30;4.90;;;;;;;8.91;59.66;99619.02;108641;1237;100775;-80
2023/05/01 07:03:07;;;;;;;12.60;5.10;;;;;;;8.98;59.73;99620.05;109429;1236;108137;-80
2023/05/01 07:05:33;;;;;;;15.00;5.20;;;;;;;9.07;59.57;99620.09;108504;1235;96595;-81
2023/05/01 07:08:01;;;;;;;14.70;5.00;;;;;;;9.13;59.51;99618.48;108344;1238;97460;-83
2023/05/01 07:10:29;;;;;;;11.20;4.00;;;;;;;9.20;59.64;99618.94;108315;1237;96665;-81
2023/05/01 07:12:56;;;;;;;14.10;4.40;;;;;;;9.27;59.37;99618.22;108307;1238;96594;-81
2023/05/01 07:15:25;;;;;;;11.80;3.90;;;;;;;9.33;59.48;99620.90;108420;1244;106972;-81
2023/05/01 07:17:55;;;;;;;16.70;4.40;;;;;;;9.38;59.43;99623.92;108251;1232;97774;-81
2023/05/01 07:20:21;;;;;;;14.40;5.40;;;;;;;9.46;59.48;99624.55;108552;1237;97075;-80
2023/05/01 07:22:48;;;;;;;11.30;4.20;;;;;;;9.53;59.32;99627.52;111585;1230;96321;-79
2023/05/01 07:25:17;;;;;;;14.80;5.20;;;;;;;9.58;59.25;99626.02;111251;1237;99753;-81
2023/05/01 07:27:43;;;;;;;13.60;5.20;;;;;;;9.63;59.28;99628.66;111289;1237;94515;-76
2023/05/01 07:30:10;;;;;;;12.70;4.60;;;;;;;9.72;59.18;99631.37;111572;1232;94181;-76
2023/05/01 07:32:37;;;;;;;14.00;4.30;;;;;;;9.78;59.26;99627.06;111583;1232;94219;-75
2023/05/01 07:35:03;;;;;;;17.40;5.10;;;;;;;9.87;59.07;99624.05;109881;1232;96493;-77
2023/05/01 07:37:30;;;;;;;13.40;4.50;;;;;;;9.94;59.07;99625.05;108667;1237;106650;-74
2023/05/01 07:39:57;;;;;;;11.10;4.00;;;;;;;9.98;58.96;99627.27;108759;1232;96568;-82
2023/05/01 07:42:26;;;;;;;16.10;4.80;;;;;;;10.03;58.82;99624.20;108585;1236;96636;-82
2023/05/01 07:44:52;;;;;;;8.00;3.60;;;;;;;10.05;58.93;99625.80;108848;1237;109925;-79
2023/05/01 07:47:20;;;;;;;12.20;3.90;;;;;;;10.10;58.81;99621.41;108672;1244;100703;-82
2023/05/01 07:49:52;;;;;;;12.30;3.80;;;;;;;10.17;58.77;99624.02;108886;1236;96509;-82
2023/05/01 07:52:18;;;;;;;9.40;3.90;;;;;;;10.24;58.80;99624.80;108637;1232;96566;-83
2023/05/01 07:54:49;;;;;;;11.70;4.40;;;;;;;10.31;58.57;99625.66;111451;1232;94270;-87
2023/05/01 07:57:16;;;;;;;13.20;4.00;;;;;;;10.33;58.45;99622.35;108370;1236;109212;-81
2023/05/01 07:59:43;;;;;;;12.90;4.10;;;;;;;10.33;58.65;99620.19;108616;1237;96572;-84
2023/05/01 08:02:10;;;;;;;13.60;4.20;;;;;;;10.37;58.61;99617.27;108392;1237;96500;-86
2023/05/01 08:04:37;;;;;;;9.80;3.60;;;;;;;10.39;58.30;99616.81;108499;1236;96652;-83
2023/05/01 08:07:12;;;;;;;9.60;3.40;;;;;;;10.43;58.32;99616.58;108317;1237;96569;-84
2023/05/01 08:09:39;;;;;;;10.90;3.30;;;;;;;10.47;58.00;99610.14;108648;1235;109480;-85
2023/05/01 08:12:06;;;;;;;10.10;3.60;;;;;;;10.48;58.18;99612.39;108321;1245;96592;-83
2023/05/01 08:14:33;;;;;;;10.00;3.10;;;;;;;10.48;57.95;99612.70;108713;1237;96774;-84
2023/05/01 08:16:59;;;;;;;7.30;2.80;;;;;;;10.53;57.91;99611.34;108396;1245;97841;-77
2023/05/01 08:19:26;;;;;;;7.80;2.80;;;;;;;10.61;57.69;99606.20;108534;1237;97497;-75
2023/05/01 08:21:56;;;;;;;8.90;3.00;;;;;;;10.69;57.57;99603.39;108518;1237;96678;-77
2023/05/01 08:24:23;;;;;;;9.90;2.80;;;;;;;10.76;57.68;99600.16;108615;1236;96653;-76
2023/05/01 08:26:50;;;;;;;11.50;3.10;;;;;;;10.79;57.56;99602.92;108468;1235;97874;-78
2023/05/01 08:29:19;;;;;;;4.80;2.40;;;;;;;10.85;56.91;99605.05;108725;1236;97806;-84
2023/05/01 08:36:12;;;;;;;8.00;2.70;;;;;;;10.95;56.84;99604.59;108894;1235;109750;-78
2023/05/01 08:57:01;;;;;;;8.80;3.00;;;;;;;11.20;56.07;99602.74;105408;1279;110098;-84
2023/05/01 09:05:17;;;;;;;4.70;2.40;;;;;;;11.43;55.48;99603.34;106377;1258;109125;-85
2023/05/01 09:08:35;;;;;;;;;;;;;;;;;;;;;
2023/05/01 09:11:26;;;;;;;59.90;37.30;;;;;;;11.47;55.32;99599.90;107463;1247;97178;-80
2023/05/01 09:14:08;;;;;;;15.30;6.00;;;;;;;11.45;55.54;99597.16;107783;1241;109560;-83
2023/05/01 09:16:45;;;;;;;11.60;3.90;;;;;;;11.45;55.20;99597.70;108797;1235;100572;-86
2023/05/01 09:29:06;;;;;;;9.30;2.90;;;;;;;11.63;55.15;99596.11;107882;1241;97879;-84
2023/05/01 09:32:35;;;;;;;8.70;3.00;;;;;;;11.73;54.75;99590.09;107351;1250;109992;-79
2023/05/01 09:36:16;;;;;;;8.90;2.90;;;;;;;11.81;54.70;99584.64;107081;1257;101338;-76
2023/05/01 09:38:46;;;;;;;11.20;2.70;;;;;;;11.99;54.68;99588.74;107312;1251;107144;-76
2023/05/01 09:41:13;;;;;;;10.70;3.30;;;;;;;12.03;54.51;99588.58;107986;1244;96567;-76
2023/05/01 09:43:40;;;;;;;4.70;2.20;;;;;;;12.09;54.52;99586.75;108558;1239;96584;-77
2023/05/01 09:46:09;;;;;;;10.90;2.90;;;;;;;12.16;54.64;99585.89;108097;1244;97556;-77
2023/05/01 09:48:38;;;;;;;6.00;2.50;;;;;;;12.21;54.45;99585.77;108268;1237;102605;-78
2023/05/01 09:51:28;;;;;;;7.10;3.00;;;;;;;12.21;54.10;99584.36;108638;1240;96570;-76
2023/05/01 09:53:56;;;;;;;8.00;2.80;;;;;;;12.18;54.37;99579.60;108478;1236;96593;-78
2023/05/01 09:56:25;;;;;;;7.70;2.90;;;;;;;12.18;54.32;99575.67;108298;1232;97711;-78
2023/05/01 09:58:53;;;;;;;8.00;2.50;;;;;;;12.16;53.30;99574.55;108416;1238;109721;-78
2023/05/01 10:01:42;;;;;;;7.90;3.00;;;;;;;12.16;53.73;99571.71;108250;1239;100444;-77
2023/05/01 10:04:15;;;;;;;6.90;2.10;;;;;;;12.13;53.41;99569.97;108422;1243;107924;-78
2023/05/01 10:06:41;;;;;;;11.00;3.10;;;;;;;12.14;53.48;99566.38;108552;1232;96656;-78
2023/05/01 10:09:15;;;;;;;7.60;2.60;;;;;;;12.23;53.44;99571.94;108199;1237;97972;-77
2023/05/01 10:12:06;;;;;;;6.10;2.50;;;;;;;12.33;53.17;99568.39;108407;1238;110373;-78
2023/05/01 10:14:48;;;;;;;8.00;2.50;;;;;;;12.36;53.01;99570.27;109137;1235;100520;-79
2023/05/01 10:17:20;;;;;;;;;;;;;;;12.35;52.99;99564.27;108390;1235;107078;-78
2023/05/01 10:19:47;;;;;;;9.30;2.80;;;;;;;12.34;52.86;99564.95;111625;1231;94377;-73
2023/05/01 10:22:15;;;;;;;7.60;2.40;;;;;;;12.38;52.91;99565.88;109394;1232;96569;-78
2023/05/01 10:24:44;;;;;;;9.60;3.10;;;;;;;12.39;52.48;99566.54;111573;1231;109789;-76
2023/05/01 10:27:15;;;;;;;10.60;3.10;;;;;;;12.35;51.92;99563.58;111670;1231;100551;-78
2023/05/01 10:29:49;;;;;;;24.40;10.50;;;;;;;12.34;52.31;99554.23;111563;1231;107588;-84
2023/05/01 10:32:19;;;;;;;9.00;2.90;;;;;;;12.39;52.24;99561.23;108860;1237;96465;-88
2023/05/01 10:34:56;;;;;;;8.80;3.40;;;;;;;12.46;51.87;99558.41;109056;1236;97514;-84
2023/05/01 10:37:34;;;;;;;5.40;2.40;;;;;;;12.56;52.06;99560.87;108442;1237;109949;-83
2023/05/01 10:40:39;;;;;;;6.50;2.50;;;;;;;12.65;52.13;99556.64;108775;1236;100711;-83
2023/05/01 10:43:33;;;;;;;7.70;2.70;;;;;;;12.72;52.10;99554.35;108862;1241;107324;-87
2023/05/01 10:47:21;;;;;;;;;;;;;;;;;;;;;
2023/05/01 10:50:38;;;;;;;4.70;2.20;;;;;;;12.77;51.54;99552.90;108317;1244;96813;-89
2023/05/01 10:53:29;;;;;;;10.90;2.60;;;;;;;12.74;51.56;99547.83;107684;1248;109392;-81
2023/05/01 10:56:13;;;;;;;11.80;2.60;;;;;;;12.78;51.30;99543.22;108593;1237;100796;-81
2023/05/01 10:59:03;;;;;;;10.50;3.10;;;;;;;12.86;51.76;99535.75;108131;1241;105816;-86
2023/05/01 11:02:22;;;;;;;8.20;2.40;;;;;;;12.94;51.44;99534.90;108430;1242;96774;-90
2023/05/01 11:04:58;;;;;;;30.20;4.20;;;;;;;13.07;51.17;99535.16;108490;1244;96775;-84
2023/05/01 11:07:34;;;;;;;6.10;3.00;;;;;;;13.08;51.31;99534.94;108354;1241;109879;-86
2023/05/01 11:10:24;;;;;;;8.50;2.80;;;;;;;13.04;50.83;99533.14;108383;1240;100736;-82
2023/05/01 11:13:12;;;;;;;10.80;3.10;;;;;;;12.99;50.98;99527.58;108106;1240;108096;-81
2023/05/01 11:16:41;;;;;;;11.70;3.60;;;;;;;13.06;50.94;99526.21;108333;1239;96779;-87
2023/05/01 11:19:59;;;;;;;5.30;2.50;;;;;;;13.13;50.61;99527.14;110543;1238;94784;-83
2023/05/01 11:22:53;;;;;;;;;;;;;;;;;;;;;
2023/05/01 11:25:34;;;;;;;6.30;2.70;;;;;;;13.13;50.62;99510.38;109802;1232;100591;-81
2023/05/01 11:28:33;;;;;;;8.20;3.40;;;;;;;13.18;50.55;99509.84;109584;1235;107564;-74
2023/05/01 11:31:03;;;;;;;14.50;4.70;;;;;;;13.24;50.54;99510.19;108199;1234;97695;-77
2023/05/01 11:34:38;;;;;;;8.90;3.50;;;;;;;13.31;50.61;99508.67;108722;1231;97711;-84
2023/05/01 11:37:10;;;;;;;102.50;64.50;;;;;;;13.28;50.53;99506.55;109919;1231;109736;-85
2023/05/01 11:39:46;;;;;;;18.80;8.30;;;;;;;13.29;50.42;99500.05;109147;1237;99148;-79
2023/05/01 11:42:13;;;;;;;10.00;3.80;;;;;;;13.33;50.18;99500.08;109276;1232;108240;-77
2023/05/01 11:45:07;;;;;;;8.30;3.00;;;;;;;13.36;50.22;99492.60;109105;1231;96630;-82
2023/05/01 11:47:37;;;;;;;10.50;3.20;;;;;;;13.32;49.87;99492.50;109176;1232;97514;-78
2023/05/01 11:50:06;;;;;;;11.00;3.10;;;;;;;13.36;49.74;99494.38;108747;1240;108861;-79
2023/05/01 11:52:54;;;;;;;7.40;3.10;;;;;;;13.44;49.93;99487.79;108557;1231;101814;-80
2023/05/01 11:55:33;;;;;;;5.50;2.30;;;;;;;13.46;49.89;99486.67;108604;1232;96560;-80
2023/05/01 11:58:03;;;;;;;6.40;2.60;;;;;;;13.49;49.87;99483.93;109222;1235;96622;-83
2023/05/01 12:00:57;;;;;;;9.50;3.00;;;;;;;13.55;49.77;99477.81;108644;1235;96566;-83
2023/05/01 12:03:46;;;;;;;6.60;3.10;;;;;;;13.71;49.91;99477.23;108702;1232;109788;-85
2023/05/01 12:06:20;;;;;;;7.60;3.20;;;;;;;13.80;49.71;99479.61;108506;1237;100929;-86
2023/05/01 12:08:49;;;;;;;6.80;2.70;;;;;;;13.80;49.71;99477.06;108249;1237;107490;-83
2023/05/01 12:11:25;;;;;;;10.40;3.10;;;;;;;13.76;49.50;99477.57;108596;1237;96678;-85
2023/05/01 12:13:54;;;;;;;9.80;3.30;;;;;;;13.69;49.41;99471.89;108604;1232;96547;-82
2023/05/01 12:16:32;;;;;;;;;;;;;;;;;;;;;
2023/05/01 12:19:50;;;;;;;7.90;3.10;;;;;;;13.60;49.31;99464.60;109044;1230;100712;-82
2023/05/01 12:22:19;;;;;;;10.30;2.90;;;;;;;13.70;49.50;99461.48;109146;1235;107186;-85
2023/05/01 12:24:56;;;;;;;6.00;2.70;;;;;;;13.72;49.31;99461.13;108748;1237;96719;-85
2023/05/01 12:27:56;;;;;;;8.80;3.20;;;;;;;13.77;49.29;99458.74;108636;1234;97842;-90
2023/05/01 12:30:26;;;;;;;6.50;2.80;;;;;;;13.80;49.18;99453.38;108756;1231;110337;-86
2023/05/01 12:33:08;;;;;;;35.70;4.50;;;;;;;13.89;49.35;99448.90;108936;1232;100859;-86